ADDS METAR Data INFO
IDs: Format: Raw Decoded Include TAF

Data at: 0027 UTC 15 Dec 2017

KSMF 142353Z 13003KT 10SM SCT250 16/05 A3011 RMK AO2 SLP197 T01560050 10161 20083 55003
KSMF 142253Z 13003KT 10SM SCT250 16/06 A3011 RMK AO2 SLP194 T01610056
KSMF 142153Z 18004KT 10SM FEW250 16/06 A3011 RMK AO2 SLP195 T01560056
KSMF 142053Z 14004KT 10SM CLR 14/06 A3012 RMK AO2 SLP199 T01440061 58012
KSMF 141953Z 14004KT 10SM CLR 13/07 A3014 RMK AO2 SLP206 T01330067
KSMF 141853Z 17005KT 10SM CLR 11/06 A3016 RMK AO2 SLP212 T01110061
KSMF 141753Z 13004KT 9SM CLR 08/06 A3016 RMK AO2 SLP211 T00830056 10083 21022 51019
KSMF 141653Z 12003KT 8SM CLR 05/04 A3014 RMK AO2 SLP205 T00500044
KSMF 141553Z 16003KT 10SM FEW250 03/02 A3012 RMK AO2 SLP198 T00280022
KSMF 141453Z 14004KT 10SM FEW250 02/01 A3010 RMK AO2 SLP192 T00170011 53015
KSMF 141353Z 00000KT 10SM CLR M01/M02 A3008 RMK AO2 SLP186 T10111017
KSMF 141253Z 00000KT 10SM CLR 01/01 A3006 RMK AO2 SLP179 T00110006
KSMF 141153Z 21003KT 10SM BCFG CLR 01/00 A3006 RMK AO2 SLP177 VIS NW 3/4 T00060000 10050 21017 56004
KSMF 141053Z 00000KT 10SM BCFG FEW001 02/01 A3006 RMK AO2 SLP178 VIS NE-E 3/4 T00220011
KSMF 140953Z 00000KT 10SM CLR 02/02 A3007 RMK AO2 SLP180 T00220017
KSMF 140853Z 00000KT 10SM CLR 04/03 A3007 RMK AO2 SLP182 T00390028 58005
KSMF 140753Z 32005KT 10SM CLR 04/04 A3008 RMK AO2 SLP184 T00440039 401611028
KSMF 140653Z 00000KT 10SM CLR 03/03 A3008 RMK AO2 SLP186 T00330033
KSMF 140553Z 00000KT 10SM CLR 05/03 A3008 RMK AO2 SLP187 T00500033 10144 20044 53005
KSMF 140453Z 00000KT 10SM CLR 05/04 A3008 RMK AO2 SLP185 T00500039
KSMF 140353Z 22004KT 10SM CLR 06/03 A3007 RMK AO2 SLP182 T00610033
KSMF 140253Z 00000KT 10SM CLR 07/04 A3007 RMK AO2 SLP181 T00720039 56002
KSMF 140153Z 00000KT 10SM FEW250 08/04 A3007 RMK AO2 SLP182 T00830039
KSMF 140053Z 12003KT 10SM SCT250 12/05 A3007 RMK AO2 SLP180 T01220050
KSMF 132353Z 06003KT 10SM SCT250 14/04 A3008 RMK AO2 SLP184 T01440044 10161 20067 56014
KSMF 132253Z 00000KT 10SM FEW250 15/04 A3008 RMK AO2 SLP184 T01500044
KSMF 132153Z 00000KT 10SM FEW250 14/03 A3009 RMK AO2 SLP188 T01440033
KSMF 132053Z 34003KT 10SM FEW250 13/04 A3012 RMK AO2 SLP197 T01280044 58033
KSMF 131953Z 01004KT 10SM FEW250 12/05 A3016 RMK AO2 SLP212 T01170050
KSMF 131853Z 01004KT 10SM BKN250 10/05 A3019 RMK AO2 SLP223 T01000050
KSMF 131753Z 35004KT 10SM SCT250 07/04 A3021 RMK AO2 SLP230 T00670044 10067 21028 53005
KSMF 131653Z 33003KT 10SM FEW250 02/02 A3020 RMK AO2 SLP227 T00220022
KSMF 131614Z 31006KT 3SM BCFG FEW000 FEW250 00/00 A3020 RMK AO2 SFC VIS 10 T00000000
KSMF 131553Z 31004KT 1/2SM R16R/1400FT BCFG FEW000 FEW250 M01/M01 A3020 RMK AO2 SFC VIS 10 SLP226 VIS W-NW-N 1/2 FG FEW000 T10061006
KSMF 131516Z 00000KT 1/2SM R16R/1400FT BCFG FEW000 FEW250 M01/M01 A3020 RMK AO2 SFC VIS 10 VIS W-NW-N 1/2 FG FEW000 T10111011
KSMF 131453Z 32004KT 10SM R16R/1000FT BCFG FEW000 FEW250 M02/M02 A3020 RMK AO2 SLP225 VIS NW-N 1/2 FG FEW000 T10171017 50004
KSMF 131353Z 29003KT 10SM R16R/1200FT BCFG FEW000 M01/M01 A3020 RMK AO2 SLP227 VIS NW 1/2 FG FEW000 FG BNK DVLPG NW T10061006
KSMF 131320Z 33006KT 10SM CLR M01/M01 A3021 RMK AO2 T10111011
KSMF 131253Z 30005KT 10SM R16R/1200FT BCFG FEW000 M01/M01 A3020 RMK AO2 SLP225 VIS NW 1/2 FG FEW000 FG BNK DCRSG NW T10061006
KSMF 131244Z 31004KT 10SM R16R/1400V3000FT BCFG FEW000 M01/M01 A3020 RMK AO2 VIS NW 1/2 FG FEW000 FG BNK DCRSG NW T10061006